createdAt,value
2022-09-14T00:01:26.309Z,94.37
2022-09-14T00:03:55.902Z,94.34
2022-09-14T00:06:23.220Z,94.16
2022-09-14T00:08:52.784Z,93.87
2022-09-14T00:11:20.329Z,93.88
2022-09-14T00:13:48.098Z,93.89
2022-09-14T00:16:21.438Z,93.97
2022-09-14T00:18:53.260Z,93.41
2022-09-14T00:21:20.617Z,93.65
2022-09-14T00:23:47.476Z,93.22
2022-09-14T00:26:17.908Z,92.97
2022-09-14T00:28:47.171Z,92.36
2022-09-14T00:31:14.176Z,91.53
2022-09-14T00:33:45.031Z,91.19
2022-09-14T00:36:15.028Z,91.11
2022-09-14T00:38:42.444Z,90.47
2022-09-14T00:41:14.203Z,89.60
2022-09-14T00:43:56.181Z,89.21
2022-09-14T00:46:23.562Z,89.12
2022-09-14T00:48:50.504Z,89.10
2022-09-14T00:51:19.322Z,89.36
2022-09-14T00:53:46.606Z,88.76
2022-09-14T00:56:14.434Z,89.28
2022-09-14T00:58:43.352Z,88.75
2022-09-14T01:01:10.682Z,88.90
2022-09-14T01:03:37.834Z,88.99
2022-09-14T01:06:08.209Z,88.91
2022-09-14T01:08:46.816Z,89.26
2022-09-14T01:11:34.273Z,89.26
2022-09-14T01:14:19.034Z,89.29
2022-09-14T01:17:01.912Z,89.31
2022-09-14T01:19:56.606Z,89.60
2022-09-14T01:23:05.408Z,89.94
2022-09-14T01:25:43.804Z,90.09
2022-09-14T01:28:18.854Z,89.80
2022-09-14T01:30:47.581Z,90.68
2022-09-14T01:33:28.217Z,91.08
2022-09-14T01:35:58.642Z,92.11
2022-09-14T01:38:34.100Z,91.76
2022-09-14T01:41:04.594Z,91.83
2022-09-14T01:43:40.882Z,92.43
2022-09-14T01:46:13.608Z,92.73
2022-09-14T01:48:46.746Z,93.06
2022-09-14T01:51:18.260Z,93.50
2022-09-14T01:53:52.165Z,94.55
2022-09-14T01:56:21.529Z,95.55
2022-09-14T01:59:03.788Z,96.48
2022-09-14T02:02:11.789Z,97.30
2022-09-14T02:05:10.657Z,97.94
2022-09-14T02:07:38.369Z,98.37
2022-09-14T02:10:09.939Z,99.46
2022-09-14T02:12:36.904Z,100.00
2022-09-14T02:15:04.161Z,100.00
2022-09-14T02:17:31.452Z,100.00
2022-09-14T02:20:01.074Z,100.00
2022-09-14T02:22:29.832Z,100.00
2022-09-14T02:24:57.469Z,100.00
2022-09-14T02:27:25.161Z,100.00
2022-09-14T02:29:52.527Z,100.00
2022-09-14T02:32:39.482Z,100.00
2022-09-14T02:35:16.767Z,100.00
2022-09-14T02:37:43.403Z,100.00
2022-09-14T02:40:34.015Z,100.00
2022-09-14T02:43:09.344Z,100.00
2022-09-14T02:46:00.493Z,100.00
2022-09-14T02:48:30.025Z,100.00
2022-09-14T02:51:08.597Z,100.00
2022-09-14T02:54:08.529Z,100.00
2022-09-14T02:56:37.452Z,100.00
2022-09-14T02:59:05.098Z,100.00
2022-09-14T03:01:31.884Z,100.00
2022-09-14T03:03:58.819Z,100.00
2022-09-14T03:06:25.718Z,100.00
2022-09-14T03:08:52.400Z,100.00
2022-09-14T03:11:19.540Z,100.00
2022-09-14T03:13:46.502Z,100.00
2022-09-14T03:16:15.670Z,100.00
2022-09-14T03:18:43.304Z,100.00
2022-09-14T03:21:15.444Z,100.00
2022-09-14T03:23:47.185Z,100.00
2022-09-14T03:26:16.160Z,100.00
2022-09-14T03:28:43.592Z,100.00
2022-09-14T03:31:11.867Z,100.00
2022-09-14T03:33:38.918Z,100.00
2022-09-14T03:36:16.604Z,100.00
2022-09-14T03:38:50.964Z,100.00
2022-09-14T03:41:18.522Z,100.00
2022-09-14T03:43:46.347Z,100.00
2022-09-14T03:46:15.824Z,100.00
2022-09-14T03:48:43.251Z,100.00
2022-09-14T03:51:12.623Z,100.00
2022-09-14T03:53:40.462Z,100.00
2022-09-14T03:56:11.877Z,100.00
2022-09-14T03:58:38.885Z,100.00
2022-09-14T04:01:07.899Z,100.00
2022-09-14T04:03:34.734Z,100.00
2022-09-14T04:06:05.485Z,100.00
2022-09-14T04:08:33.868Z,100.00
2022-09-14T04:11:00.697Z,100.00
2022-09-14T04:13:27.395Z,100.00
2022-09-14T04:16:00.675Z,100.00
2022-09-14T04:18:28.121Z,100.00
2022-09-14T04:20:58.271Z,100.00
2022-09-14T04:23:25.764Z,100.00
2022-09-14T04:25:53.843Z,100.00
2022-09-14T04:28:21.861Z,100.00
2022-09-14T04:31:02.586Z,100.00
2022-09-14T04:33:35.096Z,100.00
2022-09-14T04:36:14.105Z,100.00
2022-09-14T04:38:42.610Z,100.00
2022-09-14T04:41:15.249Z,100.00
2022-09-14T04:43:43.692Z,100.00
2022-09-14T04:46:16.363Z,100.00
2022-09-14T04:48:43.289Z,100.00
2022-09-14T04:51:11.240Z,100.00
2022-09-14T04:53:38.862Z,100.00
2022-09-14T04:56:09.444Z,100.00
2022-09-14T04:58:40.861Z,100.00
2022-09-14T05:01:08.659Z,100.00
2022-09-14T05:03:35.984Z,100.00
2022-09-14T05:06:08.202Z,100.00
2022-09-14T05:08:36.654Z,100.00
2022-09-14T05:11:03.230Z,100.00
2022-09-14T05:13:29.803Z,100.00
2022-09-14T05:16:04.398Z,100.00
2022-09-14T05:18:31.129Z,100.00
2022-09-14T05:21:02.293Z,100.00
2022-09-14T05:23:31.808Z,100.00
2022-09-14T05:25:58.567Z,99.63
2022-09-14T05:28:25.744Z,99.13
2022-09-14T05:30:52.434Z,98.11
2022-09-14T05:33:19.358Z,97.64
2022-09-14T05:35:46.696Z,95.86
2022-09-14T05:38:13.289Z,95.76
2022-09-14T05:40:39.840Z,95.34
2022-09-14T05:43:06.408Z,93.73
2022-09-14T05:45:33.551Z,93.10
2022-09-14T05:48:04.981Z,91.78
2022-09-14T05:50:32.619Z,90.49
2022-09-14T05:52:59.523Z,90.28
2022-09-14T05:55:26.352Z,89.89
2022-09-14T05:57:52.889Z,90.09
2022-09-14T06:00:19.927Z,89.23
2022-09-14T06:02:50.686Z,89.14
2022-09-14T06:05:17.815Z,89.73
2022-09-14T06:07:44.539Z,89.37
2022-09-14T06:10:11.592Z,88.21
2022-09-14T06:12:38.783Z,85.67
2022-09-14T06:15:05.605Z,84.59
2022-09-14T06:17:32.135Z,83.03
2022-09-14T06:20:03.532Z,82.25
2022-09-14T06:22:31.832Z,82.06
2022-09-14T06:24:58.397Z,82.03
2022-09-14T06:27:25.007Z,82.59
2022-09-14T06:29:53.928Z,83.59
2022-09-14T06:32:20.989Z,82.52
2022-09-14T06:34:47.551Z,82.95
2022-09-14T06:37:14.231Z,84.15
2022-09-14T06:39:40.875Z,84.64
2022-09-14T06:42:07.479Z,84.69
2022-09-14T06:44:34.082Z,84.30
2022-09-14T06:47:00.646Z,83.78
2022-09-14T06:49:27.206Z,81.70
2022-09-14T06:51:56.195Z,79.93
2022-09-14T06:54:22.741Z,80.22
2022-09-14T06:56:49.314Z,75.89
2022-09-14T06:59:17.427Z,75.98
2022-09-14T07:01:45.749Z,74.68
2022-09-14T07:04:12.680Z,75.59
2022-09-14T07:06:45.568Z,68.60
2022-09-14T07:09:12.702Z,67.02
2022-09-14T07:11:40.380Z,57.28
2022-09-14T07:14:07.845Z,54.02
2022-09-14T07:16:36.129Z,49.97
2022-09-14T07:19:07.339Z,46.24
2022-09-14T07:21:35.771Z,41.26
2022-09-14T07:24:02.747Z,42.77
2022-09-14T07:26:42.558Z,46.22
2022-09-14T07:29:18.694Z,52.64
2022-09-14T07:31:52.316Z,55.51
2022-09-14T07:34:19.223Z,48.60
2022-09-14T07:36:46.738Z,43.38
2022-09-14T07:39:16.260Z,39.45
2022-09-14T07:41:43.671Z,37.86
2022-09-14T07:44:14.787Z,36.07
2022-09-14T07:46:44.743Z,37.69
2022-09-14T07:49:12.433Z,38.97
2022-09-14T07:51:40.111Z,38.44
2022-09-14T07:54:08.548Z,36.48
2022-09-14T07:56:35.433Z,35.00
2022-09-14T07:59:30.730Z,34.75
2022-09-14T08:01:50.440Z,33.79
2022-09-14T08:04:17.295Z,33.56
2022-09-14T08:06:44.039Z,34.24
2022-09-14T08:09:10.820Z,35.73
2022-09-14T08:11:38.378Z,38.13
2022-09-14T08:14:09.741Z,38.83
2022-09-14T08:16:38.830Z,39.11
2022-09-14T08:19:08.380Z,38.81
2022-09-14T08:21:35.841Z,38.14
2022-09-14T08:24:04.427Z,37.56
2022-09-14T08:26:34.063Z,37.01
2022-09-14T08:29:00.886Z,35.17
2022-09-14T08:31:28.500Z,34.15
2022-09-14T08:34:01.390Z,33.20
2022-09-14T08:36:34.030Z,33.06
2022-09-14T08:39:01.385Z,32.67
2022-09-14T08:41:33.029Z,31.62
2022-09-14T08:44:05.497Z,32.52
2022-09-14T08:46:40.647Z,31.99
2022-09-14T08:49:21.089Z,34.14
2022-09-14T08:51:48.804Z,36.98
2022-09-14T08:54:15.515Z,37.01
2022-09-14T08:56:47.687Z,36.51
2022-09-14T08:59:20.394Z,34.69
2022-09-14T09:01:58.380Z,34.46
2022-09-14T09:04:49.230Z,35.53
2022-09-14T09:07:24.704Z,37.98
2022-09-14T09:09:54.292Z,38.00
2022-09-14T09:12:33.835Z,37.28
2022-09-14T09:15:03.119Z,38.94
2022-09-14T09:17:39.235Z,39.73
2022-09-14T09:20:14.756Z,40.62
2022-09-14T09:22:46.164Z,41.80
2022-09-14T09:25:23.668Z,42.19
2022-09-14T09:27:57.152Z,43.79
2022-09-14T09:30:23.945Z,44.03
2022-09-14T09:32:50.914Z,44.67
2022-09-14T09:35:21.883Z,47.04
2022-09-14T09:37:48.456Z,47.38
2022-09-14T09:40:30.385Z,46.43
2022-09-14T09:43:05.525Z,44.82
2022-09-14T09:45:55.442Z,44.38
2022-09-14T09:48:39.018Z,43.02
2022-09-14T09:51:24.209Z,42.62
2022-09-14T09:53:52.342Z,40.43
2022-09-14T09:56:37.740Z,40.90
2022-09-14T09:59:23.458Z,41.39
2022-09-14T10:01:50.439Z,41.79
2022-09-14T10:04:20.006Z,41.88
2022-09-14T10:06:49.573Z,42.54
2022-09-14T10:09:22.043Z,43.35
2022-09-14T10:11:58.442Z,43.93
2022-09-14T10:14:34.952Z,43.93
2022-09-14T10:17:28.092Z,44.35
2022-09-14T10:19:55.427Z,43.97
2022-09-14T10:22:36.156Z,44.41
2022-09-14T10:25:26.436Z,44.57
2022-09-14T10:27:56.345Z,45.03
2022-09-14T10:30:29.347Z,44.74
2022-09-14T10:33:02.070Z,45.72
2022-09-14T10:35:55.636Z,46.46
2022-09-14T10:38:32.081Z,46.46
2022-09-14T10:41:22.738Z,46.43
2022-09-14T10:43:59.177Z,46.95
2022-09-14T10:46:33.102Z,47.05
2022-09-14T10:49:02.727Z,48.33
2022-09-14T10:52:03.327Z,47.68
2022-09-14T10:54:44.943Z,48.10
2022-09-14T10:57:36.684Z,48.70
2022-09-14T11:00:15.656Z,48.18
2022-09-14T11:03:11.242Z,48.12
2022-09-14T11:05:42.389Z,46.93
2022-09-14T11:08:11.978Z,46.55
2022-09-14T11:11:13.889Z,46.16
2022-09-14T11:13:40.598Z,46.64
2022-09-14T11:16:28.522Z,46.57
2022-09-14T11:19:18.855Z,47.47
2022-09-14T11:22:10.307Z,47.45
2022-09-14T11:24:49.416Z,47.78
2022-09-14T11:27:33.882Z,47.79
2022-09-14T11:30:06.076Z,49.09
2022-09-14T11:32:56.394Z,49.73
2022-09-14T11:35:34.487Z,49.68
2022-09-14T11:38:13.143Z,49.68
2022-09-14T11:40:47.718Z,50.44
2022-09-14T11:43:43.908Z,49.86
2022-09-14T11:46:16.473Z,48.72
2022-09-14T11:49:01.168Z,48.07
2022-09-14T11:51:33.909Z,47.41
2022-09-14T11:54:01.174Z,47.61
2022-09-14T11:56:34.224Z,46.69
2022-09-14T11:59:07.398Z,45.96
2022-09-14T12:01:38.034Z,45.86
2022-09-14T12:04:07.161Z,46.38
2022-09-14T12:06:37.007Z,47.42
2022-09-14T12:09:12.953Z,47.05
2022-09-14T12:11:40.987Z,47.36
2022-09-14T12:14:30.449Z,48.12
2022-09-14T12:17:37.829Z,49.29
2022-09-14T12:20:20.627Z,49.00
2022-09-14T12:22:50.269Z,49.75
2022-09-14T12:25:20.083Z,50.43
2022-09-14T12:27:49.044Z,51.18
2022-09-14T12:30:48.339Z,50.98
2022-09-14T12:33:35.322Z,51.57
2022-09-14T12:36:31.799Z,51.21
2022-09-14T12:38:59.156Z,51.13
2022-09-14T12:41:25.811Z,51.39
2022-09-14T12:43:54.607Z,51.76
2022-09-14T12:46:21.405Z,51.74
2022-09-14T12:48:52.565Z,50.98
2022-09-14T12:51:31.559Z,52.34
2022-09-14T12:54:23.205Z,51.83
2022-09-14T12:56:58.744Z,52.22
2022-09-14T12:59:58.945Z,53.41
2022-09-14T13:03:15.408Z,53.78
2022-09-14T13:05:45.331Z,54.85
2022-09-14T13:08:16.025Z,54.95
2022-09-14T13:10:49.652Z,56.18
2022-09-14T13:13:24.445Z,56.58
2022-09-14T13:15:59.071Z,56.32
2022-09-14T13:18:37.207Z,56.59
2022-09-14T13:21:18.941Z,55.97
2022-09-14T13:23:45.901Z,55.08
2022-09-14T13:26:31.714Z,54.18
2022-09-14T13:29:00.641Z,55.20
2022-09-14T13:31:36.948Z,55.14
2022-09-14T13:34:05.485Z,55.18
2022-09-14T13:36:36.690Z,53.63
2022-09-14T13:39:04.580Z,53.16
2022-09-14T13:41:32.393Z,54.58
2022-09-14T13:44:00.186Z,55.34
2022-09-14T13:46:27.706Z,55.22
2022-09-14T13:48:55.891Z,55.37
2022-09-14T13:51:26.219Z,55.90
2022-09-14T13:53:56.307Z,55.22
2022-09-14T13:56:26.903Z,55.07
2022-09-14T13:59:09.121Z,55.33
2022-09-14T14:01:39.666Z,55.32
2022-09-14T14:04:21.808Z,55.31
2022-09-14T14:07:01.305Z,54.86
2022-09-14T14:09:43.016Z,55.50
2022-09-14T14:12:12.472Z,55.33
2022-09-14T14:14:39.555Z,56.38
2022-09-14T14:17:28.246Z,56.32
2022-09-14T14:19:57.731Z,56.88
2022-09-14T14:22:29.093Z,57.44
2022-09-14T14:25:12.793Z,56.97
2022-09-14T14:27:45.650Z,56.32
2022-09-14T14:30:21.530Z,56.68
2022-09-14T14:32:52.765Z,56.98
2022-09-14T14:35:22.690Z,56.84
2022-09-14T14:37:50.903Z,57.69
2022-09-14T14:40:18.974Z,57.29
2022-09-14T14:42:46.927Z,56.78
2022-09-14T14:45:21.277Z,57.36
2022-09-14T14:47:50.548Z,57.93
2022-09-14T14:50:22.153Z,58.10
2022-09-14T14:52:50.442Z,58.37
2022-09-14T14:55:17.673Z,58.64
2022-09-14T14:57:45.357Z,59.71
2022-09-14T15:00:18.327Z,60.38
2022-09-14T15:02:45.459Z,59.41
2022-09-14T15:05:13.169Z,59.24
2022-09-14T15:07:40.217Z,58.40
2022-09-14T15:10:08.779Z,58.10
2022-09-14T15:12:35.983Z,58.86
2022-09-14T15:15:03.480Z,58.82
2022-09-14T15:17:30.374Z,59.96
2022-09-14T15:19:57.209Z,60.04
2022-09-14T15:22:23.919Z,60.67
2022-09-14T15:24:50.667Z,60.78
2022-09-14T15:27:17.452Z,60.98
2022-09-14T15:29:44.166Z,61.81
2022-09-14T15:32:10.979Z,61.06
2022-09-14T15:34:37.915Z,62.33
2022-09-14T15:37:04.851Z,62.40
2022-09-14T15:39:31.841Z,62.60
2022-09-14T15:41:58.776Z,62.63
2022-09-14T15:44:25.873Z,63.24
2022-09-14T15:46:53.107Z,63.50
2022-09-14T15:49:22.387Z,63.77
2022-09-14T15:51:51.322Z,64.14
2022-09-14T15:54:24.302Z,64.48
2022-09-14T15:56:54.422Z,65.32
2022-09-14T15:59:21.918Z,65.56
2022-09-14T16:01:48.949Z,65.80
2022-09-14T16:04:16.306Z,66.99
2022-09-14T16:06:43.305Z,67.05
2022-09-14T16:09:12.067Z,68.53
2022-09-14T16:11:39.882Z,68.75
2022-09-14T16:14:08.326Z,69.51
2022-09-14T16:16:36.484Z,69.13
2022-09-14T16:19:11.811Z,69.24
2022-09-14T16:21:39.057Z,70.35
2022-09-14T16:24:08.336Z,70.16
2022-09-14T16:26:38.196Z,70.97
2022-09-14T16:29:06.942Z,71.43
2022-09-14T16:31:36.427Z,71.08
2022-09-14T16:34:12.212Z,70.76
2022-09-14T16:36:40.523Z,70.41
2022-09-14T16:39:11.555Z,70.65
2022-09-14T16:41:40.594Z,70.57
2022-09-14T16:44:10.100Z,71.20
2022-09-14T16:46:37.207Z,69.93
2022-09-14T16:49:06.021Z,70.29
2022-09-14T16:51:33.373Z,70.40
2022-09-14T16:54:00.685Z,70.54
2022-09-14T16:56:31.056Z,70.55
2022-09-14T16:58:59.233Z,71.32
2022-09-14T17:01:43.559Z,71.14
2022-09-14T17:04:14.064Z,70.83
2022-09-14T17:06:43.600Z,70.44
2022-09-14T17:09:15.755Z,70.81
2022-09-14T17:11:43.251Z,71.35
2022-09-14T17:14:14.465Z,71.75
2022-09-14T17:16:41.315Z,71.32
2022-09-14T17:19:08.191Z,71.70
2022-09-14T17:21:37.140Z,72.33
2022-09-14T17:24:05.071Z,72.10
2022-09-14T17:26:32.702Z,71.75
2022-09-14T17:29:01.272Z,72.67
2022-09-14T17:31:30.882Z,72.94
2022-09-14T17:33:59.658Z,72.75
2022-09-14T17:36:26.904Z,73.43
2022-09-14T17:38:56.774Z,73.18
2022-09-14T17:41:24.219Z,73.37
2022-09-14T17:44:00.502Z,73.50
2022-09-14T17:46:27.873Z,74.07
2022-09-14T17:48:57.551Z,74.08
2022-09-14T17:51:26.112Z,74.15
2022-09-14T17:53:54.878Z,74.76
2022-09-14T17:56:24.076Z,74.44
2022-09-14T17:59:06.293Z,75.14
2022-09-14T18:01:34.135Z,74.84
2022-09-14T18:04:04.365Z,75.49
2022-09-14T18:06:34.816Z,75.28
2022-09-14T18:09:04.843Z,75.69
2022-09-14T18:11:33.630Z,76.44
2022-09-14T18:14:00.505Z,75.92
2022-09-14T18:16:28.064Z,76.55
2022-09-14T18:18:57.627Z,76.56
2022-09-14T18:21:25.906Z,76.98
2022-09-14T18:23:54.772Z,77.46
2022-09-14T18:26:22.951Z,77.41
2022-09-14T18:28:53.866Z,77.73
2022-09-14T18:31:20.692Z,77.66
2022-09-14T18:33:53.008Z,77.55
2022-09-14T18:36:21.105Z,77.62
2022-09-14T18:38:48.962Z,77.21
2022-09-14T18:41:17.477Z,77.61
2022-09-14T18:43:51.369Z,77.33
2022-09-14T18:46:19.444Z,77.27
2022-09-14T18:48:47.116Z,77.14
2022-09-14T18:51:15.141Z,77.15
2022-09-14T18:53:42.943Z,77.68
2022-09-14T18:56:12.599Z,78.38
2022-09-14T18:58:42.422Z,77.89
2022-09-14T19:01:10.985Z,77.98
2022-09-14T19:03:40.114Z,78.33
2022-09-14T19:06:10.243Z,78.65
2022-09-14T19:08:37.367Z,78.09
2022-09-14T19:11:10.077Z,78.94
2022-09-14T19:13:40.878Z,79.00
2022-09-14T19:16:12.912Z,79.62
2022-09-14T19:18:41.001Z,79.66
2022-09-14T19:21:23.872Z,80.09
2022-09-14T19:24:08.716Z,80.21
2022-09-14T19:26:45.246Z,80.50
2022-09-14T19:29:14.817Z,81.28
2022-09-14T19:31:41.942Z,80.81
2022-09-14T19:34:10.865Z,80.28
2022-09-14T19:36:38.119Z,80.92
2022-09-14T19:39:05.929Z,80.66
2022-09-14T19:41:34.321Z,80.94
2022-09-14T19:44:03.481Z,81.78
2022-09-14T19:46:31.707Z,81.40
2022-09-14T19:48:59.303Z,81.57
2022-09-14T19:51:29.354Z,81.10
2022-09-14T19:53:57.963Z,80.86
2022-09-14T19:56:27.290Z,81.15
2022-09-14T19:58:57.596Z,80.74
2022-09-14T20:01:26.608Z,80.67
2022-09-14T20:03:54.236Z,80.07
2022-09-14T20:06:31.928Z,79.10
2022-09-14T20:09:05.514Z,79.24
2022-09-14T20:11:34.632Z,78.50
2022-09-14T20:14:04.129Z,77.46
2022-09-14T20:16:37.571Z,77.26
2022-09-14T20:19:19.794Z,77.30
2022-09-14T20:21:48.729Z,77.31
2022-09-14T20:24:25.928Z,76.83
2022-09-14T20:26:58.970Z,77.01
2022-09-14T20:29:30.255Z,76.28
2022-09-14T20:31:58.355Z,76.61
2022-09-14T20:34:25.202Z,76.18
2022-09-14T20:36:53.233Z,75.60
2022-09-14T20:39:22.256Z,75.56
2022-09-14T20:41:49.247Z,74.83
2022-09-14T20:44:17.092Z,75.17
2022-09-14T20:46:44.813Z,74.44
2022-09-14T20:49:17.103Z,74.74
2022-09-14T20:51:44.262Z,74.39
2022-09-14T20:54:14.061Z,73.65
2022-09-14T20:56:41.424Z,73.55
2022-09-14T20:59:11.103Z,73.74
2022-09-14T21:01:39.615Z,73.65
2022-09-14T21:04:12.492Z,73.17
2022-09-14T21:06:42.618Z,73.21
2022-09-14T21:09:10.493Z,72.72
2022-09-14T21:11:38.094Z,72.58
2022-09-14T21:14:04.959Z,72.93
2022-09-14T21:16:34.869Z,72.47
2022-09-14T21:19:07.441Z,72.15
2022-09-14T21:21:34.531Z,71.91
2022-09-14T21:24:01.926Z,71.95
2022-09-14T21:26:32.217Z,71.52
2022-09-14T21:29:01.083Z,70.92
2022-09-14T21:31:30.044Z,71.43
2022-09-14T21:33:59.276Z,71.36
2022-09-14T21:36:37.375Z,71.67
2022-09-14T21:39:11.554Z,71.38
2022-09-14T21:41:39.675Z,71.52
2022-09-14T21:44:06.739Z,71.40
2022-09-14T21:46:34.346Z,72.21
2022-09-14T21:49:01.328Z,72.18
2022-09-14T21:51:34.064Z,72.39
2022-09-14T21:54:09.605Z,71.78
2022-09-14T21:56:38.483Z,72.45
2022-09-14T21:59:19.610Z,72.72
2022-09-14T22:01:47.871Z,72.77
2022-09-14T22:04:20.178Z,73.17
2022-09-14T22:06:47.426Z,73.15
2022-09-14T22:09:16.448Z,72.49
2022-09-14T22:11:43.765Z,72.36
2022-09-14T22:14:15.943Z,72.07
2022-09-14T22:16:42.949Z,71.65
2022-09-14T22:19:15.511Z,71.80
2022-09-14T22:21:42.224Z,71.41
2022-09-14T22:24:14.921Z,71.64
2022-09-14T22:26:43.510Z,71.44
2022-09-14T22:29:10.811Z,72.13
2022-09-14T22:31:40.201Z,72.13
2022-09-14T22:34:07.851Z,71.75
2022-09-14T22:36:35.253Z,71.88
2022-09-14T22:39:02.311Z,71.76
2022-09-14T22:41:29.350Z,71.51
2022-09-14T22:43:56.270Z,71.59
2022-09-14T22:46:23.898Z,72.42
2022-09-14T22:48:50.873Z,72.05
2022-09-14T22:51:20.849Z,71.91
2022-09-14T22:53:47.568Z,71.16
2022-09-14T22:56:26.816Z,71.45
2022-09-14T22:58:54.301Z,71.33
2022-09-14T23:01:27.127Z,70.81
2022-09-14T23:03:57.248Z,71.35
2022-09-14T23:06:29.119Z,71.29
2022-09-14T23:08:56.498Z,71.53
2022-09-14T23:11:23.528Z,71.40
2022-09-14T23:13:50.608Z,71.97
2022-09-14T23:16:20.506Z,71.43
2022-09-14T23:18:55.415Z,71.27
2022-09-14T23:21:22.819Z,71.18
2022-09-14T23:23:58.338Z,71.35
2022-09-14T23:26:25.842Z,71.74
2022-09-14T23:28:55.352Z,71.82
2022-09-14T23:31:22.758Z,71.79
2022-09-14T23:33:51.708Z,71.75
2022-09-14T23:36:19.504Z,71.48
2022-09-14T23:38:48.221Z,71.83
2022-09-14T23:41:19.371Z,71.16
2022-09-14T23:43:46.149Z,70.89
2022-09-14T23:46:13.253Z,71.43
2022-09-14T23:48:40.205Z,71.31
2022-09-14T23:51:09.054Z,70.73
2022-09-14T23:53:36.949Z,71.59
2022-09-14T23:56:04.294Z,71.77
2022-09-14T23:58:31.699Z,72.23
